Corning, Kansas
Current Conditions -  °F | °C
As of 6:15 AM on Monday 24 Nov 2014 (Local Time) from KMYZ Reporting Station
Overcast Overcast  
Wind Chill: 23°   Ceiling: 7500
Heat Index: 32°   Visibility: 10mi
Dew Point: 23°   Wind: 12mph
Humidity: 69%   Direction: 300°WNW
Pressure: 29.67"   Gusts: 16mph
Location:  39.66°N, 96.03°W
Report Text: KMYZ 241215Z AUTO 30010G14KT 10SM OVC075 00/M05 A2967 RMK AO2
Loading
Personal Weather Stations






























Interactive Weather Map New forecast layout! Learn more

10-Day Weather Forecast

Advertisements
Track Severe Weather on mobile